createdAt,value
2023-05-10T00:00:15.010Z,5.97
2023-05-10T00:02:43.743Z,6.60
2023-05-10T00:05:11.343Z,5.23
2023-05-10T00:07:38.942Z,5.50
2023-05-10T00:10:07.323Z,5.33
2023-05-10T00:12:34.945Z,4.43
2023-05-10T00:15:03.732Z,6.33
2023-05-10T00:17:32.819Z,6.60
2023-05-10T00:20:00.447Z,7.37
2023-05-10T00:22:28.062Z,6.70
2023-05-10T00:24:55.689Z,7.70
2023-05-10T00:27:23.257Z,7.10
2023-05-10T00:29:51.163Z,8.90
2023-05-10T00:32:18.899Z,10.23
2023-05-10T00:34:47.935Z,11.50
2023-05-10T00:37:15.538Z,13.00
2023-05-10T00:39:43.122Z,12.10
2023-05-10T00:42:10.958Z,12.73
2023-05-10T00:44:38.602Z,15.87
2023-05-10T00:47:07.460Z,16.30
2023-05-10T00:49:35.216Z,16.73
2023-05-10T00:52:04.374Z,18.07
2023-05-10T00:54:32.405Z,14.23
2023-05-10T00:57:00.068Z,16.40
2023-05-10T00:59:27.778Z,13.77
2023-05-10T01:01:55.500Z,17.30
2023-05-10T01:04:26.551Z,14.23
2023-05-10T01:06:55.327Z,17.37
2023-05-10T01:09:27.130Z,14.30
2023-05-10T01:11:56.563Z,11.90
2023-05-10T01:14:24.694Z,15.07
2023-05-10T01:16:52.366Z,17.03
2023-05-10T01:19:25.395Z,14.43
2023-05-10T01:22:03.810Z,14.73
2023-05-10T01:25:00.706Z,13.17
2023-05-10T01:28:02.674Z,13.60
2023-05-10T01:31:11.837Z,15.13
2023-05-10T01:33:48.804Z,16.47
2023-05-10T01:36:27.061Z,14.03
2023-05-10T01:39:03.181Z,13.40
2023-05-10T01:41:41.839Z,12.00
2023-05-10T01:44:18.619Z,10.60
2023-05-10T01:46:53.823Z,10.03
2023-05-10T01:49:26.132Z,8.70
2023-05-10T01:51:56.447Z,11.60
2023-05-10T01:54:25.700Z,10.40
2023-05-10T01:57:01.011Z,9.53
2023-05-10T01:59:37.116Z,11.10
2023-05-10T02:02:07.711Z,12.20
2023-05-10T02:04:39.155Z,11.00
2023-05-10T02:07:07.566Z,15.37
2023-05-10T02:09:36.542Z,12.93
2023-05-10T02:12:07.463Z,19.30
2023-05-10T02:14:38.209Z,14.37
2023-05-10T02:17:08.641Z,15.87
2023-05-10T02:19:40.306Z,14.63
2023-05-10T02:22:09.177Z,15.43
2023-05-10T02:24:38.431Z,18.13
2023-05-10T02:27:06.816Z,16.67
2023-05-10T02:29:35.696Z,17.90
2023-05-10T02:32:04.454Z,23.33
2023-05-10T02:34:33.045Z,16.17
2023-05-10T02:37:04.522Z,15.07
2023-05-10T02:39:34.333Z,22.70
2023-05-10T02:42:04.232Z,23.17
2023-05-10T02:44:32.794Z,19.17
2023-05-10T02:47:00.807Z,18.90
2023-05-10T02:49:29.922Z,23.57
2023-05-10T02:52:01.947Z,23.00
2023-05-10T02:54:33.864Z,25.37
2023-05-10T02:57:06.090Z,26.30
2023-05-10T02:59:34.342Z,25.20
2023-05-10T03:02:03.018Z,22.60
2023-05-10T03:04:30.721Z,21.93
2023-05-10T03:07:00.167Z,24.83
2023-05-10T03:09:28.037Z,33.53
2023-05-10T03:12:05.923Z,29.93
2023-05-10T03:14:45.694Z,34.90
2023-05-10T03:17:19.871Z,28.50
2023-05-10T03:19:54.845Z,34.43
2023-05-10T03:22:28.337Z,30.37
2023-05-10T03:24:58.851Z,34.07
2023-05-10T03:27:32.005Z,36.13
2023-05-10T03:30:03.338Z,33.40
2023-05-10T03:32:35.621Z,35.47
2023-05-10T03:35:03.404Z,31.87
2023-05-10T03:37:31.394Z,37.27
2023-05-10T03:39:59.111Z,34.20
2023-05-10T03:42:26.699Z,30.57
2023-05-10T03:44:55.960Z,37.93
2023-05-10T03:47:24.741Z,29.00
2023-05-10T03:49:52.365Z,32.20
2023-05-10T03:52:20.003Z,36.40
2023-05-10T03:54:47.609Z,35.53
2023-05-10T03:57:15.225Z,30.37
2023-05-10T03:59:42.804Z,31.50
2023-05-10T04:02:11.825Z,29.53
2023-05-10T04:04:39.442Z,33.47
2023-05-10T04:07:07.074Z,28.50
2023-05-10T04:09:35.407Z,30.33
2023-05-10T04:12:03.468Z,32.43
2023-05-10T04:14:31.144Z,26.83
2023-05-10T04:16:58.807Z,30.73
2023-05-10T04:19:31.138Z,24.60
2023-05-10T04:21:58.784Z,25.67
2023-05-10T04:24:26.742Z,30.47
2023-05-10T04:26:57.626Z,30.67
2023-05-10T04:29:25.628Z,31.40
2023-05-10T04:31:54.207Z,24.87
2023-05-10T04:34:22.715Z,26.57
2023-05-10T04:36:51.723Z,30.60
2023-05-10T04:39:19.330Z,29.80
2023-05-10T04:41:47.014Z,30.57
2023-05-10T04:44:14.605Z,23.50
2023-05-10T04:46:42.313Z,31.67
2023-05-10T04:49:10.076Z,41.87
2023-05-10T04:51:37.708Z,44.10
2023-05-10T04:54:07.013Z,42.43
2023-05-10T04:56:35.066Z,37.53
2023-05-10T04:59:02.703Z,43.27
2023-05-10T05:01:30.398Z,38.57
2023-05-10T05:03:58.228Z,50.07
2023-05-10T05:06:28.018Z,39.73
2023-05-10T05:08:55.771Z,46.27
2023-05-10T05:11:24.862Z,45.43
2023-05-10T05:13:52.467Z,44.13
2023-05-10T05:16:20.154Z,37.00
2023-05-10T05:18:49.231Z,59.60
2023-05-10T05:21:17.936Z,47.33
2023-05-10T05:23:45.822Z,55.60
2023-05-10T05:26:13.535Z,44.80
2023-05-10T05:28:42.697Z,48.80
2023-05-10T05:31:10.480Z,43.83
2023-05-10T05:33:38.336Z,51.63
2023-05-10T05:36:07.312Z,48.33
2023-05-10T05:38:35.029Z,48.90
2023-05-10T05:41:02.669Z,48.87
2023-05-10T05:43:30.455Z,55.40
2023-05-10T05:45:59.672Z,58.90
2023-05-10T05:48:27.295Z,49.07
2023-05-10T05:50:57.400Z,44.37
2023-05-10T05:53:25.491Z,60.20
2023-05-10T05:55:54.870Z,53.17
2023-05-10T05:58:22.765Z,64.23
2023-05-10T06:00:50.575Z,60.77
2023-05-10T06:03:20.033Z,62.07
2023-05-10T06:05:47.859Z,60.20
2023-05-10T06:08:15.523Z,59.37
2023-05-10T06:10:43.200Z,53.30
2023-05-10T06:13:10.925Z,56.40
2023-05-10T06:15:38.570Z,55.97
2023-05-10T06:18:06.826Z,63.03
2023-05-10T06:20:35.902Z,61.73
2023-05-10T06:23:03.482Z,51.73
2023-05-10T06:25:31.354Z,54.00
2023-05-10T06:27:58.979Z,48.73
2023-05-10T06:30:29.078Z,43.03
2023-05-10T06:32:56.984Z,47.27
2023-05-10T06:35:25.090Z,49.27
2023-05-10T06:37:54.045Z,46.37
2023-05-10T06:40:21.989Z,42.33
2023-05-10T06:42:49.981Z,41.60
2023-05-10T06:45:19.281Z,44.47
2023-05-10T06:47:47.189Z,43.70
2023-05-10T06:50:14.828Z,49.00
2023-05-10T06:52:42.473Z,41.83
2023-05-10T06:55:12.398Z,42.03
2023-05-10T06:57:40.009Z,36.20
2023-05-10T07:00:10.537Z,38.97
2023-05-10T07:02:38.392Z,38.10
2023-05-10T07:05:06.869Z,41.83
2023-05-10T07:07:34.554Z,42.83
2023-05-10T07:10:02.129Z,49.87
2023-05-10T07:12:31.224Z,41.80
2023-05-10T07:14:58.970Z,44.83
2023-05-10T07:17:26.738Z,47.53
2023-05-10T07:19:54.534Z,43.03
2023-05-10T07:22:22.124Z,44.50
2023-05-10T07:24:49.776Z,46.33
2023-05-10T07:27:17.373Z,54.10
2023-05-10T07:29:46.488Z,48.60
2023-05-10T07:32:14.209Z,50.10
2023-05-10T07:34:42.249Z,49.90
2023-05-10T07:37:09.876Z,59.90
2023-05-10T07:39:38.334Z,55.37
2023-05-10T07:42:06.585Z,56.93
2023-05-10T07:44:34.392Z,56.90
2023-05-10T07:47:03.359Z,51.30
2023-05-10T07:49:31.021Z,50.33
2023-05-10T07:51:58.630Z,44.10
2023-05-10T07:54:26.381Z,47.83
2023-05-10T07:56:53.960Z,44.30
2023-05-10T07:59:21.613Z,43.20
2023-05-10T08:01:49.236Z,37.17
2023-05-10T08:04:18.393Z,40.60
2023-05-10T08:06:46.122Z,45.00
2023-05-10T08:09:13.769Z,39.60
2023-05-10T08:11:41.372Z,46.60
2023-05-10T08:14:09.035Z,42.10
2023-05-10T08:16:36.666Z,41.00
2023-05-10T08:19:04.697Z,37.37
2023-05-10T08:21:33.842Z,40.00
2023-05-10T08:24:01.477Z,40.53
2023-05-10T08:26:29.134Z,34.53
2023-05-10T08:28:56.898Z,48.93
2023-05-10T08:31:24.596Z,33.07
2023-05-10T08:33:52.502Z,32.33
2023-05-10T08:36:22.483Z,33.73
2023-05-10T08:38:52.269Z,34.43
2023-05-10T08:41:22.016Z,31.43
2023-05-10T08:43:49.912Z,33.93
2023-05-10T08:46:19.229Z,24.87
2023-05-10T08:48:48.160Z,24.50
2023-05-10T08:51:19.296Z,18.13
2023-05-10T08:53:47.592Z,19.37
2023-05-10T08:56:18.746Z,19.53
2023-05-10T08:58:46.898Z,17.83
2023-05-10T09:01:17.109Z,14.93
2023-05-10T09:03:45.641Z,15.20
2023-05-10T09:06:15.098Z,21.17
2023-05-10T09:08:43.761Z,17.73
2023-05-10T09:11:11.609Z,19.90
2023-05-10T09:13:40.932Z,21.50
2023-05-10T09:16:20.486Z,19.13
2023-05-10T09:18:50.324Z,24.33
2023-05-10T09:21:18.073Z,22.53
2023-05-10T09:23:48.199Z,18.70
2023-05-10T09:26:16.986Z,22.27
2023-05-10T09:28:57.689Z,18.53
2023-05-10T09:31:26.798Z,28.37
2023-05-10T09:33:55.403Z,20.53
2023-05-10T09:36:22.973Z,17.83
2023-05-10T09:38:52.635Z,21.87
2023-05-10T09:41:22.020Z,22.20
2023-05-10T09:43:49.876Z,22.27
2023-05-10T09:46:19.019Z,20.20
2023-05-10T09:48:48.749Z,24.20
2023-05-10T09:51:23.185Z,25.93
2023-05-10T09:53:51.532Z,23.57
2023-05-10T09:56:38.516Z,28.57
2023-05-10T09:59:06.910Z,24.97
2023-05-10T10:01:36.144Z,25.37
2023-05-10T10:04:06.101Z,27.37
2023-05-10T10:06:38.478Z,28.57
2023-05-10T10:09:07.619Z,40.70
2023-05-10T10:11:37.314Z,39.83
2023-05-10T10:14:05.840Z,43.30
2023-05-10T10:16:34.407Z,38.57
2023-05-10T10:19:03.888Z,32.23
2023-05-10T10:21:31.817Z,31.03
2023-05-10T10:23:59.528Z,34.80
2023-05-10T10:26:27.525Z,31.50
2023-05-10T10:29:06.166Z,28.00
2023-05-10T10:31:38.955Z,30.03
2023-05-10T10:34:10.581Z,27.20
2023-05-10T10:36:46.655Z,22.63
2023-05-10T10:39:14.435Z,23.80
2023-05-10T10:41:51.026Z,27.00
2023-05-10T10:44:27.311Z,27.03
2023-05-10T10:47:02.065Z,25.50
2023-05-10T10:49:32.871Z,26.03
2023-05-10T10:52:29.104Z,24.67
2023-05-10T10:55:02.167Z,20.80
2023-05-10T10:57:33.193Z,19.83
2023-05-10T11:00:20.343Z,18.80
2023-05-10T11:02:50.086Z,20.67
2023-05-10T11:05:27.758Z,20.93
2023-05-10T11:07:56.225Z,17.20
2023-05-10T11:10:24.878Z,17.30
2023-05-10T11:13:01.796Z,21.33
2023-05-10T11:15:33.521Z,19.80
2023-05-10T11:18:02.020Z,21.87
2023-05-10T11:20:40.523Z,25.70
2023-05-10T11:23:18.833Z,25.40
2023-05-10T11:25:48.004Z,25.60
2023-05-10T11:28:16.136Z,23.27
2023-05-10T11:30:45.755Z,19.73
2023-05-10T11:33:18.308Z,20.43
2023-05-10T11:35:47.719Z,23.37
2023-05-10T11:38:16.039Z,20.40
2023-05-10T11:40:43.887Z,17.90
2023-05-10T11:43:12.950Z,19.00
2023-05-10T11:45:44.402Z,21.37
2023-05-10T11:48:12.230Z,22.17
2023-05-10T11:50:39.973Z,22.67
2023-05-10T11:53:08.961Z,20.07
2023-05-10T11:55:36.643Z,22.57
2023-05-10T11:58:04.652Z,25.07
2023-05-10T12:00:33.551Z,23.40
2023-05-10T12:03:02.723Z,19.87
2023-05-10T12:05:34.756Z,23.40
2023-05-10T12:08:18.023Z,22.03
2023-05-10T12:10:45.696Z,22.93
2023-05-10T12:13:15.155Z,25.57
2023-05-10T12:15:43.610Z,20.30
2023-05-10T12:18:12.471Z,21.37
2023-05-10T12:20:40.621Z,20.97
2023-05-10T12:23:10.918Z,25.67
2023-05-10T12:25:40.735Z,19.97
2023-05-10T12:28:10.546Z,19.27
2023-05-10T12:30:39.653Z,17.57
2023-05-10T12:33:11.561Z,16.90
2023-05-10T12:35:47.482Z,21.27
2023-05-10T12:38:34.483Z,21.93
2023-05-10T12:41:05.205Z,18.40
2023-05-10T12:43:33.706Z,20.07
2023-05-10T12:46:06.700Z,19.47
2023-05-10T12:48:34.891Z,21.23
2023-05-10T12:51:02.759Z,20.90
2023-05-10T12:53:30.920Z,21.30
2023-05-10T12:55:58.978Z,19.20
2023-05-10T12:58:35.607Z,17.43
2023-05-10T13:01:05.678Z,16.83
2023-05-10T13:03:33.421Z,14.93
2023-05-10T13:06:01.181Z,17.63
2023-05-10T13:08:30.692Z,19.27
2023-05-10T13:10:58.424Z,18.80
2023-05-10T13:13:26.291Z,12.77
2023-05-10T13:15:55.461Z,18.23
2023-05-10T13:18:23.154Z,12.80
2023-05-10T13:20:51.507Z,15.03
2023-05-10T13:23:19.099Z,19.13
2023-05-10T13:25:46.710Z,15.93
2023-05-10T13:28:14.384Z,13.40
2023-05-10T13:30:41.999Z,12.90
2023-05-10T13:33:11.026Z,11.40
2023-05-10T13:35:38.685Z,13.97
2023-05-10T13:38:08.806Z,13.87
2023-05-10T13:40:36.914Z,12.13
2023-05-10T13:43:04.575Z,13.20
2023-05-10T13:45:32.166Z,11.60
2023-05-10T13:47:59.837Z,11.87
2023-05-10T13:50:28.949Z,10.20
2023-05-10T13:52:56.597Z,13.50
2023-05-10T13:55:24.290Z,8.03
2023-05-10T13:57:51.906Z,8.17
2023-05-10T14:00:20.139Z,7.47
2023-05-10T14:02:47.877Z,7.20
2023-05-10T14:05:15.661Z,8.90
2023-05-10T14:07:44.704Z,7.37
2023-05-10T14:10:12.474Z,8.20
2023-05-10T14:12:40.155Z,6.70
2023-05-10T14:15:09.115Z,5.57
2023-05-10T14:17:36.751Z,8.83
2023-05-10T14:20:04.898Z,9.90
2023-05-10T14:22:32.560Z,7.80
2023-05-10T14:25:01.988Z,6.87
2023-05-10T14:27:29.710Z,9.40
2023-05-10T14:29:57.312Z,8.70
2023-05-10T14:32:24.930Z,6.93
2023-05-10T14:34:54.548Z,8.30
2023-05-10T14:37:22.151Z,8.27
2023-05-10T14:39:49.794Z,10.67
2023-05-10T14:42:18.744Z,7.53
2023-05-10T14:44:46.388Z,10.77
2023-05-10T14:47:14.313Z,9.13
2023-05-10T14:49:42.051Z,9.60
2023-05-10T14:52:09.760Z,12.90
2023-05-10T14:54:37.511Z,11.60
2023-05-10T14:57:05.112Z,12.57
2023-05-10T14:59:34.223Z,11.13
2023-05-10T15:02:02.192Z,15.00
2023-05-10T15:04:30.226Z,11.57
2023-05-10T15:07:00.263Z,13.20
2023-05-10T15:09:28.439Z,11.13
2023-05-10T15:11:56.217Z,12.90
2023-05-10T15:14:24.216Z,12.53
2023-05-10T15:16:53.261Z,12.77
2023-05-10T15:19:21.806Z,11.50
2023-05-10T15:21:49.565Z,12.07
2023-05-10T15:24:17.231Z,12.10
2023-05-10T15:26:45.115Z,11.33
2023-05-10T15:29:12.771Z,11.63
2023-05-10T15:31:40.481Z,10.63
2023-05-10T15:34:09.613Z,9.63
2023-05-10T15:36:37.280Z,11.20
2023-05-10T15:39:05.035Z,11.03
2023-05-10T15:41:32.740Z,10.73
2023-05-10T15:44:00.594Z,14.93
2023-05-10T15:46:28.779Z,11.90
2023-05-10T15:48:57.107Z,10.70
2023-05-10T15:51:26.726Z,10.90
2023-05-10T15:54:05.668Z,11.23
2023-05-10T15:56:34.094Z,12.77
2023-05-10T15:59:01.820Z,10.90
2023-05-10T16:01:30.784Z,11.93
2023-05-10T16:03:58.449Z,12.60
2023-05-10T16:06:27.523Z,12.53
2023-05-10T16:08:55.381Z,12.17
2023-05-10T16:11:23.239Z,11.43
2023-05-10T16:13:50.903Z,12.00
2023-05-10T16:16:18.657Z,11.23
2023-05-10T16:18:46.474Z,11.47
2023-05-10T16:21:14.210Z,13.00
2023-05-10T16:23:46.253Z,13.57
2023-05-10T16:26:13.842Z,12.17
2023-05-10T16:28:41.709Z,13.40
2023-05-10T16:31:09.478Z,14.83
2023-05-10T16:33:37.259Z,15.90
2023-05-10T16:36:06.086Z,14.20
2023-05-10T16:38:33.744Z,16.03
2023-05-10T16:41:04.438Z,16.70
2023-05-10T16:43:33.655Z,17.77
2023-05-10T16:46:01.289Z,19.47
2023-05-10T16:48:28.980Z,15.77
2023-05-10T16:50:56.560Z,21.97
2023-05-10T16:53:24.253Z,18.83
2023-05-10T16:55:51.859Z,15.10
2023-05-10T16:58:20.849Z,13.17
2023-05-10T17:00:48.561Z,15.03
2023-05-10T17:03:16.270Z,9.67
2023-05-10T17:05:44.371Z,13.93
2023-05-10T17:08:12.095Z,11.67
2023-05-10T17:10:41.021Z,11.30
2023-05-10T17:13:10.380Z,8.87
2023-05-10T17:15:40.213Z,9.50
2023-05-10T17:18:07.998Z,7.93
2023-05-10T17:20:35.720Z,6.63
2023-05-10T17:23:03.435Z,6.50
2023-05-10T17:25:31.115Z,5.63
2023-05-10T17:27:58.735Z,8.83
2023-05-10T17:30:28.702Z,12.83
2023-05-10T17:32:57.688Z,10.17
2023-05-10T17:35:25.339Z,7.40
2023-05-10T17:37:53.184Z,5.93
2023-05-10T17:40:20.936Z,12.57
2023-05-10T17:42:48.569Z,6.50
2023-05-10T17:45:16.622Z,8.20
2023-05-10T17:47:44.372Z,7.67
2023-05-10T17:50:13.505Z,7.10
2023-05-10T17:52:41.154Z,5.80
2023-05-10T17:55:09.802Z,4.43
2023-05-10T17:57:38.694Z,4.90
2023-05-10T18:00:08.706Z,7.33
2023-05-10T18:02:36.520Z,6.33
2023-05-10T18:05:04.406Z,7.87
2023-05-10T18:07:33.472Z,6.60
2023-05-10T18:10:01.164Z,6.67
2023-05-10T18:12:28.849Z,7.60
2023-05-10T18:14:56.578Z,7.67
2023-05-10T18:17:24.725Z,7.03
2023-05-10T18:19:53.089Z,5.80
2023-05-10T18:22:20.705Z,8.27
2023-05-10T18:24:49.656Z,7.53
2023-05-10T18:27:17.419Z,7.00
2023-05-10T18:29:45.135Z,7.93
2023-05-10T18:32:12.909Z,6.83
2023-05-10T18:34:40.593Z,6.67
2023-05-10T18:37:09.552Z,8.53
2023-05-10T18:39:37.480Z,7.20
2023-05-10T18:42:07.205Z,8.93
2023-05-10T18:44:34.979Z,10.00
2023-05-10T18:47:02.560Z,10.57
2023-05-10T18:49:30.253Z,11.00
2023-05-10T18:51:58.334Z,13.60
2023-05-10T18:54:26.644Z,13.00
2023-05-10T18:56:54.174Z,11.57
2023-05-10T18:59:23.107Z,9.23
2023-05-10T19:01:51.333Z,13.10
2023-05-10T19:04:19.222Z,11.40
2023-05-10T19:06:47.139Z,8.97
2023-05-10T19:09:14.873Z,10.97
2023-05-10T19:11:43.258Z,11.80
2023-05-10T19:14:10.929Z,11.20
2023-05-10T19:16:39.900Z,11.03
2023-05-10T19:19:08.804Z,15.47
2023-05-10T19:21:37.989Z,12.30
2023-05-10T19:24:05.963Z,10.47
2023-05-10T19:26:33.663Z,13.23
2023-05-10T19:29:03.631Z,11.40
2023-05-10T19:31:33.400Z,13.57
2023-05-10T19:34:04.350Z,15.17
2023-05-10T19:36:32.094Z,9.10
2023-05-10T19:38:59.796Z,11.93
2023-05-10T19:41:27.673Z,11.00
2023-05-10T19:43:55.346Z,10.77
2023-05-10T19:46:22.959Z,11.10
2023-05-10T19:48:50.565Z,10.30
2023-05-10T19:51:19.528Z,9.60
2023-05-10T19:53:47.126Z,9.47
2023-05-10T19:56:14.827Z,8.90
2023-05-10T19:58:42.409Z,9.43
2023-05-10T20:01:10.016Z,12.97
2023-05-10T20:03:37.647Z,8.50
2023-05-10T20:06:05.408Z,10.20
2023-05-10T20:08:34.480Z,8.87
2023-05-10T20:11:03.585Z,8.70
2023-05-10T20:13:31.370Z,12.10
2023-05-10T20:15:59.590Z,11.90
2023-05-10T20:18:27.501Z,11.43
2023-05-10T20:20:55.911Z,13.53
2023-05-10T20:23:23.920Z,10.80
2023-05-10T20:25:53.560Z,9.63
2023-05-10T20:28:23.301Z,10.07
2023-05-10T20:30:53.662Z,14.57
2023-05-10T20:33:22.029Z,10.10
2023-05-10T20:35:51.135Z,10.97
2023-05-10T20:38:19.204Z,11.67
2023-05-10T20:40:47.239Z,11.00
2023-05-10T20:43:16.211Z,9.47
2023-05-10T20:45:43.825Z,10.90
2023-05-10T20:48:11.507Z,11.70
2023-05-10T20:50:39.149Z,13.67
2023-05-10T20:53:06.820Z,9.90
2023-05-10T20:55:34.461Z,13.10
2023-05-10T20:58:04.700Z,12.13
2023-05-10T21:00:33.997Z,12.00
2023-05-10T21:03:01.661Z,12.27
2023-05-10T21:05:29.390Z,11.80
2023-05-10T21:07:57.019Z,12.23
2023-05-10T21:10:25.462Z,10.80
2023-05-10T21:12:53.191Z,17.10
2023-05-10T21:15:22.455Z,15.67
2023-05-10T21:17:51.472Z,13.70
2023-05-10T21:20:19.231Z,14.30
2023-05-10T21:22:46.976Z,12.03
2023-05-10T21:25:14.681Z,12.43
2023-05-10T21:27:42.257Z,14.97
2023-05-10T21:30:11.064Z,13.67
2023-05-10T21:32:38.708Z,12.70
2023-05-10T21:35:09.269Z,13.60
2023-05-10T21:37:36.967Z,11.67
2023-05-10T21:40:05.782Z,14.00
2023-05-10T21:42:33.402Z,12.40
2023-05-10T21:45:01.036Z,14.30
2023-05-10T21:47:28.670Z,12.67
2023-05-10T21:49:56.306Z,11.00
2023-05-10T21:52:25.356Z,14.83
2023-05-10T21:54:52.951Z,13.90
2023-05-10T21:57:21.395Z,12.70
2023-05-10T21:59:49.026Z,16.70
2023-05-10T22:02:16.852Z,20.47
2023-05-10T22:04:44.523Z,18.40
2023-05-10T22:07:12.231Z,20.77
2023-05-10T22:09:41.178Z,15.13
2023-05-10T22:12:08.867Z,14.83
2023-05-10T22:14:36.600Z,12.10
2023-05-10T22:17:04.400Z,16.97
2023-05-10T22:19:32.022Z,14.07
2023-05-10T22:21:59.690Z,18.10
2023-05-10T22:24:27.270Z,17.70
2023-05-10T22:26:56.347Z,19.00
2023-05-10T22:29:23.963Z,18.93
2023-05-10T22:31:51.700Z,17.03
2023-05-10T22:34:19.396Z,14.73
2023-05-10T22:36:46.994Z,16.27
2023-05-10T22:39:14.602Z,17.60
2023-05-10T22:41:42.206Z,20.70
2023-05-10T22:44:11.164Z,14.13
2023-05-10T22:46:39.752Z,17.47
2023-05-10T22:49:07.432Z,16.03
2023-05-10T22:51:35.562Z,19.87
2023-05-10T22:54:03.223Z,17.80
2023-05-10T22:56:31.963Z,18.70
2023-05-10T22:58:59.672Z,17.63
2023-05-10T23:01:29.517Z,15.63
2023-05-10T23:03:57.399Z,21.83
2023-05-10T23:06:25.020Z,15.13
2023-05-10T23:08:52.632Z,17.03
2023-05-10T23:11:21.644Z,19.97
2023-05-10T23:13:50.480Z,24.77
2023-05-10T23:16:18.220Z,24.40
2023-05-10T23:18:47.257Z,27.47
2023-05-10T23:21:14.934Z,31.00
2023-05-10T23:23:42.623Z,30.53
2023-05-10T23:26:10.311Z,26.83
2023-05-10T23:28:37.918Z,23.43
2023-05-10T23:31:05.980Z,27.93
2023-05-10T23:33:33.589Z,24.53
2023-05-10T23:36:02.528Z,24.47
2023-05-10T23:38:30.180Z,26.60
2023-05-10T23:40:57.915Z,28.13
2023-05-10T23:43:25.615Z,25.30
2023-05-10T23:45:53.917Z,25.80
2023-05-10T23:48:21.790Z,26.20
2023-05-10T23:50:49.428Z,23.30
2023-05-10T23:53:18.377Z,26.80
2023-05-10T23:55:46.729Z,25.93
2023-05-10T23:58:14.408Z,25.47
